createdAt,value
2018-02-12T00:00:37.543Z,67.80
2018-02-12T00:03:05.166Z,64.70
2018-02-12T00:05:32.746Z,49.83
2018-02-12T00:08:00.306Z,60.33
2018-02-12T00:10:27.922Z,60.93
2018-02-12T00:12:55.486Z,66.57
2018-02-12T00:15:23.059Z,61.23
2018-02-12T00:17:50.640Z,71.87
2018-02-12T00:20:18.239Z,62.10
2018-02-12T00:22:45.915Z,76.07
2018-02-12T00:25:13.482Z,72.00
2018-02-12T00:27:41.064Z,69.47
2018-02-12T00:30:08.736Z,65.70
2018-02-12T00:32:36.298Z,74.93
2018-02-12T00:35:03.964Z,72.23
2018-02-12T00:37:31.527Z,73.70
2018-02-12T00:39:59.147Z,79.10
2018-02-12T00:42:26.714Z,65.10
2018-02-12T00:44:55.508Z,70.90
2018-02-12T00:47:23.177Z,68.13
2018-02-12T00:49:50.737Z,70.50
2018-02-12T00:52:18.298Z,66.53
2018-02-12T00:54:45.870Z,69.70
2018-02-12T00:57:13.495Z,66.60
2018-02-12T00:59:41.177Z,66.03
2018-02-12T01:02:08.754Z,60.07
2018-02-12T01:04:36.318Z,60.20
2018-02-12T01:07:03.967Z,68.60
2018-02-12T01:09:31.587Z,70.60
2018-02-12T01:11:59.218Z,68.17
2018-02-12T01:14:26.804Z,70.80
2018-02-12T01:16:54.431Z,66.03
2018-02-12T01:19:22.000Z,55.43
2018-02-12T01:21:49.625Z,61.40
2018-02-12T01:24:17.199Z,59.20
2018-02-12T01:26:44.757Z,55.40
2018-02-12T01:29:16.064Z,60.13
2018-02-12T01:31:43.679Z,69.00
2018-02-12T01:34:11.320Z,69.80
2018-02-12T01:36:38.890Z,66.30
2018-02-12T01:39:06.454Z,73.47
2018-02-12T01:41:34.075Z,76.20
2018-02-12T01:44:01.671Z,76.70
2018-02-12T01:46:29.258Z,74.30
2018-02-12T01:48:56.865Z,76.50
2018-02-12T01:51:24.513Z,76.63
2018-02-12T01:53:52.135Z,68.03
2018-02-12T01:56:19.767Z,70.57
2018-02-12T01:58:47.392Z,74.90
2018-02-12T02:01:15.027Z,72.50
2018-02-12T02:03:42.676Z,69.90
2018-02-12T02:06:10.238Z,63.40
2018-02-12T02:08:37.874Z,75.47
2018-02-12T02:11:05.442Z,69.87
2018-02-12T02:13:33.103Z,70.33
2018-02-12T02:16:00.896Z,70.97
2018-02-12T02:18:28.509Z,70.17
2018-02-12T02:20:56.165Z,74.17
2018-02-12T02:23:23.709Z,73.77
2018-02-12T02:25:51.259Z,65.70
2018-02-12T02:28:18.814Z,66.40
2018-02-12T02:30:46.445Z,63.93
2018-02-12T02:33:14.006Z,76.20
2018-02-12T02:35:41.670Z,70.03
2018-02-12T02:38:09.294Z,70.63
2018-02-12T02:40:36.919Z,78.40
2018-02-12T02:43:04.491Z,62.93
2018-02-12T02:45:32.068Z,70.03
2018-02-12T02:47:59.686Z,67.70
2018-02-12T02:50:27.255Z,67.80
2018-02-12T02:52:54.873Z,73.07
2018-02-12T02:55:22.441Z,63.90
2018-02-12T02:57:50.067Z,57.70
2018-02-12T03:00:17.698Z,70.10
2018-02-12T03:02:45.263Z,77.90
2018-02-12T03:05:12.882Z,85.20
2018-02-12T03:07:40.446Z,82.00
2018-02-12T03:10:08.001Z,92.67
2018-02-12T03:12:35.571Z,89.67
2018-02-12T03:15:03.137Z,71.93
2018-02-12T03:17:30.716Z,70.10
2018-02-12T03:19:58.282Z,71.07
2018-02-12T03:22:25.966Z,67.27
2018-02-12T03:24:53.709Z,64.87
2018-02-12T03:27:21.301Z,68.27
2018-02-12T03:29:48.945Z,64.07
2018-02-12T03:32:16.509Z,70.80
2018-02-12T03:34:44.074Z,68.23
2018-02-12T03:37:11.696Z,68.60
2018-02-12T03:39:39.309Z,70.30
2018-02-12T03:42:06.869Z,58.50
2018-02-12T03:44:34.414Z,72.40
2018-02-12T03:47:02.036Z,69.63
2018-02-12T03:49:29.579Z,63.07
2018-02-12T03:51:57.149Z,59.93
2018-02-12T03:54:24.819Z,66.07
2018-02-12T03:56:52.506Z,67.60
2018-02-12T03:59:20.129Z,71.03
2018-02-12T04:01:47.698Z,72.43
2018-02-12T04:04:15.280Z,67.90
2018-02-12T04:06:42.910Z,63.37
2018-02-12T04:09:10.562Z,70.50
2018-02-12T04:11:38.125Z,61.43
2018-02-12T04:14:05.754Z,58.57
2018-02-12T04:16:33.310Z,69.50
2018-02-12T04:19:00.885Z,62.43
2018-02-12T04:21:28.515Z,75.27
2018-02-12T04:23:56.134Z,68.13
2018-02-12T04:26:23.705Z,71.07
2018-02-12T04:28:51.313Z,67.33
2018-02-12T04:31:19.004Z,87.47
2018-02-12T04:33:46.649Z,110.17
2018-02-12T04:36:14.214Z,81.40
2018-02-12T04:38:41.786Z,59.57
2018-02-12T04:41:09.411Z,55.57
2018-02-12T04:43:36.981Z,58.77
2018-02-12T04:46:04.537Z,61.17
2018-02-12T04:48:32.177Z,56.63
2018-02-12T04:50:59.747Z,67.47
2018-02-12T04:53:27.309Z,68.20
2018-02-12T04:55:54.880Z,65.20
2018-02-12T04:58:22.498Z,57.93
2018-02-12T05:00:50.084Z,64.43
2018-02-12T05:03:17.627Z,53.70
2018-02-12T05:05:45.253Z,57.93
2018-02-12T05:08:12.893Z,53.30
2018-02-12T05:10:40.546Z,51.70
2018-02-12T05:13:08.128Z,53.90
2018-02-12T05:15:35.675Z,47.97
2018-02-12T05:18:03.298Z,57.90
2018-02-12T05:20:30.859Z,56.63
2018-02-12T05:22:58.463Z,58.23
2018-02-12T05:25:26.026Z,68.37
2018-02-12T05:27:53.585Z,73.50
2018-02-12T05:30:21.222Z,73.40
2018-02-12T05:32:48.852Z,65.10
2018-02-12T05:35:16.557Z,77.20
2018-02-12T05:37:44.130Z,80.30
2018-02-12T05:40:11.758Z,82.37
2018-02-12T05:42:39.398Z,76.63
2018-02-12T05:45:06.961Z,72.67
2018-02-12T05:47:34.579Z,65.97
2018-02-12T05:50:02.140Z,71.07
2018-02-12T05:52:29.702Z,78.73
2018-02-12T05:54:57.254Z,71.60
2018-02-12T05:57:24.815Z,70.77
2018-02-12T05:59:52.390Z,73.47
2018-02-12T06:02:20.015Z,64.60
2018-02-12T06:04:47.725Z,62.67
2018-02-12T06:07:15.286Z,95.33
2018-02-12T06:09:42.912Z,140.17
2018-02-12T06:12:10.465Z,110.00
2018-02-12T06:14:38.010Z,100.93
2018-02-12T06:17:05.582Z,103.40
2018-02-12T06:19:33.203Z,87.20
2018-02-12T06:22:00.800Z,78.83
2018-02-12T06:24:28.358Z,85.83
2018-02-12T06:26:55.933Z,84.40
2018-02-12T06:29:23.510Z,83.13
2018-02-12T06:31:51.070Z,77.97
2018-02-12T06:34:18.698Z,90.03
2018-02-12T06:36:46.318Z,75.93
2018-02-12T06:39:13.937Z,68.50
2018-02-12T06:41:41.505Z,91.47
2018-02-12T06:44:09.069Z,97.83
2018-02-12T06:46:36.637Z,81.13
2018-02-12T06:49:04.200Z,85.17
2018-02-12T06:51:31.792Z,121.97
2018-02-12T06:53:59.353Z,112.33
2018-02-12T06:56:26.982Z,111.10
2018-02-12T06:58:54.537Z,93.17
2018-02-12T07:01:22.158Z,117.50
2018-02-12T07:03:49.743Z,121.13
2018-02-12T07:06:17.319Z,116.50
2018-02-12T07:08:44.950Z,135.83
2018-02-12T07:11:12.555Z,131.00
2018-02-12T07:13:40.235Z,123.03
2018-02-12T07:16:07.863Z,114.90
2018-02-12T07:18:35.428Z,94.87
2018-02-12T07:21:02.998Z,101.00
2018-02-12T07:23:30.575Z,84.53
2018-02-12T07:25:58.132Z,72.53
2018-02-12T07:28:25.746Z,64.73
2018-02-12T07:30:53.374Z,70.20
2018-02-12T07:33:20.998Z,57.30
2018-02-12T07:35:48.605Z,76.40
2018-02-12T07:38:16.181Z,80.70
2018-02-12T07:40:43.741Z,71.87
2018-02-12T07:43:11.317Z,60.53
2018-02-12T07:45:38.893Z,73.60
2018-02-12T07:48:06.537Z,65.77
2018-02-12T07:50:34.110Z,57.73
2018-02-12T07:53:01.750Z,66.13
2018-02-12T07:55:29.329Z,72.03
2018-02-12T07:57:56.960Z,51.80
2018-02-12T08:00:24.542Z,54.27
2018-02-12T08:02:52.132Z,56.90
2018-02-12T08:05:19.756Z,59.33
2018-02-12T08:07:47.306Z,64.17
2018-02-12T08:10:14.878Z,69.57
2018-02-12T08:12:42.480Z,69.20
2018-02-12T08:15:10.857Z,76.63
2018-02-12T08:17:38.435Z,100.30
2018-02-12T08:20:06.015Z,96.43
2018-02-12T08:22:33.637Z,101.70
2018-02-12T08:25:01.206Z,115.33
2018-02-12T08:27:28.782Z,103.57
2018-02-12T08:29:56.364Z,113.13
2018-02-12T08:32:23.987Z,78.93
2018-02-12T08:34:51.634Z,98.53
2018-02-12T08:37:19.205Z,92.60
2018-02-12T08:39:46.868Z,82.20
2018-02-12T08:42:14.507Z,80.83
2018-02-12T08:44:42.078Z,80.23
2018-02-12T08:47:09.660Z,78.13
2018-02-12T08:49:37.230Z,68.30
2018-02-12T08:52:04.909Z,60.10
2018-02-12T08:54:32.494Z,49.47
2018-02-12T08:57:00.159Z,58.27
2018-02-12T08:59:27.748Z,61.23
2018-02-12T09:01:55.332Z,71.53
2018-02-12T09:04:22.930Z,85.43
2018-02-12T09:06:50.565Z,70.97
2018-02-12T09:09:18.138Z,48.97
2018-02-12T09:11:45.718Z,42.27
2018-02-12T09:14:13.335Z,31.00
2018-02-12T09:16:40.967Z,27.87
2018-02-12T09:19:08.602Z,31.17
2018-02-12T09:21:36.249Z,29.87
2018-02-12T09:24:03.827Z,22.10
2018-02-12T09:26:31.508Z,23.00
2018-02-12T09:28:59.078Z,26.23
2018-02-12T09:31:26.646Z,25.57
2018-02-12T09:33:54.225Z,28.40
2018-02-12T09:36:21.839Z,29.80
2018-02-12T09:38:49.458Z,36.93
2018-02-12T09:41:17.021Z,43.33
2018-02-12T09:43:44.589Z,39.53
2018-02-12T09:46:12.193Z,42.47
2018-02-12T09:48:39.765Z,38.23
2018-02-12T09:51:07.402Z,42.97
2018-02-12T09:53:34.974Z,31.63
2018-02-12T09:56:02.620Z,38.00
2018-02-12T09:58:30.204Z,40.30
2018-02-12T10:00:57.785Z,34.77
2018-02-12T10:03:25.433Z,32.37
2018-02-12T10:05:53.054Z,25.57
2018-02-12T10:08:21.487Z,36.83
2018-02-12T10:10:49.051Z,39.20
2018-02-12T10:13:16.738Z,37.83
2018-02-12T10:15:44.354Z,35.97
2018-02-12T10:18:11.978Z,30.77
2018-02-12T10:20:39.553Z,40.27
2018-02-12T10:23:07.118Z,38.77
2018-02-12T10:25:34.692Z,34.87
2018-02-12T10:28:02.274Z,30.53
2018-02-12T10:30:29.898Z,30.37
2018-02-12T10:32:57.519Z,25.77
2018-02-12T10:35:25.139Z,27.67
2018-02-12T10:37:52.722Z,32.30
2018-02-12T10:40:20.297Z,32.60
2018-02-12T10:42:47.914Z,26.63
2018-02-12T10:45:15.535Z,23.27
2018-02-12T10:47:43.205Z,34.33
2018-02-12T10:50:10.771Z,26.50
2018-02-12T10:52:38.338Z,31.37
2018-02-12T10:55:05.928Z,26.20
2018-02-12T10:57:33.490Z,31.70
2018-02-12T11:00:01.131Z,37.30
2018-02-12T11:02:28.709Z,28.27
2018-02-12T11:04:56.419Z,37.93
2018-02-12T11:07:23.986Z,31.70
2018-02-12T11:09:51.554Z,38.30
2018-02-12T11:12:19.138Z,34.97
2018-02-12T11:14:46.713Z,27.33
2018-02-12T11:17:14.355Z,27.93
2018-02-12T11:19:41.941Z,32.50
2018-02-12T11:22:09.486Z,30.13
2018-02-12T11:24:37.058Z,32.17
2018-02-12T11:27:04.688Z,36.03
2018-02-12T11:29:32.351Z,32.70
2018-02-12T11:32:00.027Z,32.60
2018-02-12T11:34:27.654Z,30.90
2018-02-12T11:36:55.250Z,30.23
2018-02-12T11:39:22.869Z,29.40
2018-02-12T11:41:50.502Z,29.50
2018-02-12T11:44:18.140Z,32.67
2018-02-12T11:46:45.712Z,31.97
2018-02-12T11:49:13.298Z,27.50
2018-02-12T11:51:40.870Z,29.23
2018-02-12T11:54:08.507Z,31.47
2018-02-12T11:56:36.070Z,23.37
2018-02-12T11:59:03.702Z,20.60
2018-02-12T12:01:31.332Z,18.23
2018-02-12T12:03:58.905Z,20.27
2018-02-12T12:06:26.477Z,21.03
2018-02-12T12:08:54.039Z,33.30
2018-02-12T12:11:21.618Z,22.03
2018-02-12T12:13:49.244Z,23.73
2018-02-12T12:16:16.876Z,22.07
2018-02-12T12:18:44.445Z,11.57
2018-02-12T12:21:12.019Z,16.70
2018-02-12T12:23:39.651Z,15.50
2018-02-12T12:26:07.279Z,13.07
2018-02-12T12:28:34.914Z,12.13
2018-02-12T12:31:02.553Z,16.70
2018-02-12T12:33:30.181Z,11.93
2018-02-12T12:35:57.750Z,26.03
2018-02-12T12:38:25.387Z,24.50
2018-02-12T12:40:53.198Z,12.97
2018-02-12T12:43:20.826Z,18.23
2018-02-12T12:45:48.454Z,13.23
2018-02-12T12:48:16.024Z,21.03
2018-02-12T12:50:43.717Z,12.93
2018-02-12T12:53:11.279Z,12.60
2018-02-12T12:55:38.851Z,11.77
2018-02-12T12:58:06.434Z,17.73
2018-02-12T13:00:34.002Z,15.60
2018-02-12T13:03:01.567Z,17.93
2018-02-12T13:05:29.190Z,14.27
2018-02-12T13:07:56.903Z,13.00
2018-02-12T13:10:24.527Z,17.60
2018-02-12T13:12:52.086Z,22.40
2018-02-12T13:15:19.708Z,19.23
2018-02-12T13:17:47.588Z,15.23
2018-02-12T13:20:15.223Z,16.87
2018-02-12T13:22:42.853Z,17.80
2018-02-12T13:25:10.472Z,34.83
2018-02-12T13:27:38.091Z,18.40
2018-02-12T13:30:05.720Z,21.60
2018-02-12T13:32:33.315Z,26.03
2018-02-12T13:35:00.892Z,17.47
2018-02-12T13:37:28.488Z,24.97
2018-02-12T13:39:56.118Z,24.77
2018-02-12T13:42:23.747Z,35.20
2018-02-12T13:44:51.312Z,15.10
2018-02-12T13:47:18.895Z,15.10
2018-02-12T13:49:46.607Z,25.70
2018-02-12T13:52:14.210Z,15.30
2018-02-12T13:54:41.808Z,30.73
2018-02-12T13:57:09.461Z,35.87
2018-02-12T13:59:37.193Z,25.17
2018-02-12T14:02:04.795Z,24.60
2018-02-12T14:04:32.379Z,46.67
2018-02-12T14:07:00.023Z,18.20
2018-02-12T14:09:27.590Z,15.17
2018-02-12T14:11:55.279Z,13.37
2018-02-12T14:14:22.846Z,12.57
2018-02-12T14:16:50.599Z,16.47
2018-02-12T14:19:18.214Z,19.40
2018-02-12T14:21:45.842Z,35.17
2018-02-12T14:24:13.486Z,18.33
2018-02-12T14:26:41.061Z,20.57
2018-02-12T14:29:08.626Z,18.13
2018-02-12T14:31:36.181Z,21.33
2018-02-12T14:34:03.806Z,35.37
2018-02-12T14:36:31.377Z,40.93
2018-02-12T14:38:58.996Z,28.87
2018-02-12T14:41:26.569Z,24.60
2018-02-12T14:43:54.139Z,40.70
2018-02-12T14:46:21.739Z,29.67
2018-02-12T14:48:49.323Z,21.40
2018-02-12T14:51:17.403Z,15.80
2018-02-12T14:53:44.988Z,14.07
2018-02-12T14:56:12.563Z,17.77
2018-02-12T14:58:40.154Z,15.90
2018-02-12T15:01:07.755Z,20.10
2018-02-12T15:03:35.333Z,19.67
2018-02-12T15:06:02.902Z,18.40
2018-02-12T15:08:30.682Z,23.30
2018-02-12T15:10:59.013Z,22.40
2018-02-12T15:13:26.590Z,17.70
2018-02-12T15:15:54.170Z,21.67
2018-02-12T15:18:21.806Z,17.40
2018-02-12T15:20:49.458Z,15.50
2018-02-12T15:23:17.119Z,18.13
2018-02-12T15:25:44.891Z,21.23
2018-02-12T15:28:12.518Z,24.13
2018-02-12T15:30:40.083Z,21.97
2018-02-12T15:33:07.651Z,23.10
2018-02-12T15:35:35.277Z,35.03
2018-02-12T15:38:03.424Z,25.60
2018-02-12T15:40:31.017Z,19.30
2018-02-12T15:42:58.650Z,13.70
2018-02-12T15:45:26.267Z,16.40
2018-02-12T15:47:53.879Z,21.07
2018-02-12T15:50:21.522Z,21.90
2018-02-12T15:52:49.157Z,23.73
2018-02-12T15:55:16.734Z,22.80
2018-02-12T15:57:44.307Z,20.40
2018-02-12T16:00:11.964Z,25.90
2018-02-12T16:02:39.546Z,23.47
2018-02-12T16:05:07.121Z,21.30
2018-02-12T16:07:34.751Z,28.63
2018-02-12T16:10:02.337Z,22.33
2018-02-12T16:12:29.926Z,28.00
2018-02-12T16:15:10.204Z,26.37
2018-02-12T16:17:37.939Z,42.07
2018-02-12T16:20:05.610Z,100.37
2018-02-12T16:22:33.240Z,100.43
2018-02-12T16:25:00.858Z,103.77
2018-02-12T16:27:28.478Z,121.37
2018-02-12T16:29:56.112Z,94.60
2018-02-12T16:32:23.781Z,116.63
2018-02-12T16:34:51.509Z,108.13
2018-02-12T16:37:19.090Z,137.70
2018-02-12T16:39:46.700Z,149.00
2018-02-12T16:42:14.287Z,162.10
2018-02-12T16:44:41.970Z,133.77
2018-02-12T16:47:09.643Z,144.00
2018-02-12T16:49:37.224Z,146.37
2018-02-12T16:52:04.943Z,160.30
2018-02-12T16:54:32.538Z,209.70
2018-02-12T16:57:00.131Z,231.20
2018-02-12T16:59:27.731Z,250.57
2018-02-12T17:01:55.309Z,393.50
2018-02-12T17:04:22.895Z,343.30
2018-02-12T17:06:50.476Z,228.63
2018-02-12T17:09:18.798Z,191.57
2018-02-12T17:11:46.457Z,160.07
2018-02-12T17:14:14.095Z,142.40
2018-02-12T17:16:42.248Z,151.53
2018-02-12T17:19:09.879Z,139.13
2018-02-12T17:21:37.514Z,132.23
2018-02-12T17:24:05.087Z,133.90
2018-02-12T17:26:32.775Z,146.80
2018-02-12T17:29:01.223Z,171.63
2018-02-12T17:31:28.821Z,214.97
2018-02-12T17:33:56.472Z,179.00
2018-02-12T17:36:24.335Z,159.43
2018-02-12T17:38:52.096Z,159.23
2018-02-12T17:41:19.722Z,184.50
2018-02-12T17:43:47.330Z,195.47
2018-02-12T17:46:14.915Z,211.03
2018-02-12T17:48:42.491Z,194.10
2018-02-12T17:51:10.073Z,201.07
2018-02-12T17:53:37.658Z,189.83
2018-02-12T17:56:05.248Z,157.60
2018-02-12T17:58:32.813Z,161.83
2018-02-12T18:01:00.452Z,145.87
2018-02-12T18:03:28.078Z,163.00
2018-02-12T18:05:55.644Z,162.03
2018-02-12T18:08:23.871Z,222.57
2018-02-12T18:10:51.668Z,240.10
2018-02-12T18:13:19.258Z,216.27
2018-02-12T18:15:46.891Z,237.60
2018-02-12T18:18:14.518Z,227.27
2018-02-12T18:20:42.093Z,177.13
2018-02-12T18:23:09.666Z,159.77
2018-02-12T18:25:37.238Z,146.60
2018-02-12T18:28:05.311Z,150.97
2018-02-12T18:30:32.930Z,194.63
2018-02-12T18:33:00.519Z,247.17
2018-02-12T18:35:28.165Z,217.67
2018-02-12T18:37:55.734Z,216.00
2018-02-12T18:40:24.219Z,209.50
2018-02-12T18:42:51.862Z,196.87
2018-02-12T18:45:19.434Z,185.27
2018-02-12T18:47:47.130Z,196.70
2018-02-12T18:50:14.710Z,198.80
2018-02-12T18:52:43.679Z,194.30
2018-02-12T18:55:11.253Z,235.40
2018-02-12T18:57:38.888Z,194.50
2018-02-12T19:00:06.510Z,169.57
2018-02-12T19:02:34.123Z,194.10
2018-02-12T19:05:01.818Z,204.57
2018-02-12T19:07:29.450Z,212.40
2018-02-12T19:09:57.181Z,235.23
2018-02-12T19:12:24.814Z,238.00
2018-02-12T19:14:52.382Z,236.03
2018-02-12T19:17:19.971Z,237.50
2018-02-12T19:19:47.569Z,222.60
2018-02-12T19:22:15.166Z,240.20
2018-02-12T19:24:42.738Z,225.30
2018-02-12T19:27:10.374Z,202.17
2018-02-12T19:29:37.945Z,216.90
2018-02-12T19:32:05.509Z,240.33
2018-02-12T19:34:33.094Z,233.80
2018-02-12T19:37:00.665Z,224.50
2018-02-12T19:39:28.227Z,244.77
2018-02-12T19:41:56.540Z,231.23
2018-02-12T19:44:24.190Z,218.63
2018-02-12T19:46:51.766Z,235.33
2018-02-12T19:49:19.357Z,191.87
2018-02-12T19:51:46.981Z,191.57
2018-02-12T19:54:14.643Z,200.17
2018-02-12T19:56:42.278Z,200.10
2018-02-12T19:59:09.850Z,201.47
2018-02-12T20:01:37.432Z,172.80
2018-02-12T20:04:05.060Z,160.63
2018-02-12T20:06:32.638Z,165.60
2018-02-12T20:09:00.256Z,155.57
2018-02-12T20:11:27.882Z,179.87
2018-02-12T20:13:55.464Z,188.50
2018-02-12T20:16:23.055Z,216.87
2018-02-12T20:18:50.612Z,248.43
2018-02-12T20:21:18.336Z,166.70
2018-02-12T20:23:45.958Z,161.57
2018-02-12T20:26:13.522Z,192.23
2018-02-12T20:28:41.111Z,211.03
2018-02-12T20:31:08.675Z,182.67
2018-02-12T20:33:36.247Z,170.50
2018-02-12T20:36:04.053Z,173.20
2018-02-12T20:38:31.630Z,193.83
2018-02-12T20:40:59.278Z,141.20
2018-02-12T20:43:26.862Z,140.77
2018-02-12T20:45:54.491Z,136.83
2018-02-12T20:48:22.150Z,143.90
2018-02-12T20:50:49.739Z,180.33
2018-02-12T20:53:17.314Z,207.67
2018-02-12T20:55:44.941Z,184.57
2018-02-12T20:58:12.502Z,157.73
2018-02-12T21:00:40.078Z,230.47
2018-02-12T21:03:07.695Z,185.00
2018-02-12T21:05:35.270Z,191.77
2018-02-12T21:08:02.838Z,108.50
2018-02-12T21:10:30.409Z,99.07
2018-02-12T21:12:57.969Z,101.90
2018-02-12T21:15:25.547Z,109.30
2018-02-12T21:17:53.127Z,138.57
2018-02-12T21:20:20.754Z,143.63
2018-02-12T21:22:48.325Z,141.03
2018-02-12T21:25:15.954Z,135.07
2018-02-12T21:27:43.527Z,113.77
2018-02-12T21:30:11.142Z,93.80
2018-02-12T21:32:38.797Z,110.27
2018-02-12T21:35:06.368Z,108.80
2018-02-12T21:37:34.025Z,123.37
2018-02-12T21:40:01.587Z,120.07
2018-02-12T21:42:29.151Z,103.53
2018-02-12T21:44:56.726Z,103.47
2018-02-12T21:47:24.341Z,89.53
2018-02-12T21:49:51.910Z,99.30
2018-02-12T21:52:19.482Z,110.90
2018-02-12T21:54:47.103Z,107.43
2018-02-12T21:57:14.726Z,104.43
2018-02-12T21:59:42.347Z,125.70
2018-02-12T22:02:09.958Z,114.03
2018-02-12T22:04:37.521Z,108.50
2018-02-12T22:07:05.142Z,103.10
2018-02-12T22:09:32.720Z,114.43
2018-02-12T22:12:00.343Z,115.23
2018-02-12T22:14:27.902Z,93.10
2018-02-12T22:16:55.466Z,106.00
2018-02-12T22:19:23.042Z,129.97
2018-02-12T22:21:50.589Z,113.80
2018-02-12T22:24:18.248Z,103.57
2018-02-12T22:26:45.884Z,92.47
2018-02-12T22:29:13.497Z,93.13
2018-02-12T22:31:41.053Z,96.00
2018-02-12T22:34:08.614Z,89.10
2018-02-12T22:36:36.281Z,80.23
2018-02-12T22:39:03.947Z,62.27
2018-02-12T22:41:31.513Z,62.37
2018-02-12T22:43:59.079Z,62.60
2018-02-12T22:46:26.696Z,59.03
2018-02-12T22:48:54.260Z,71.30
2018-02-12T22:51:21.883Z,66.67
2018-02-12T22:53:49.515Z,59.83
2018-02-12T22:56:17.086Z,46.00
2018-02-12T22:58:44.717Z,58.77
2018-02-12T23:01:12.274Z,56.80
2018-02-12T23:03:39.898Z,64.87
2018-02-12T23:06:07.453Z,64.23
2018-02-12T23:08:35.009Z,66.17
2018-02-12T23:11:02.637Z,61.73
2018-02-12T23:13:30.189Z,48.67
2018-02-12T23:15:57.791Z,62.03
2018-02-12T23:18:25.349Z,68.67
2018-02-12T23:20:52.937Z,86.60
2018-02-12T23:23:20.558Z,79.73
2018-02-12T23:25:48.268Z,65.43
2018-02-12T23:28:15.827Z,64.60
2018-02-12T23:30:43.397Z,82.03
2018-02-12T23:33:11.007Z,73.20
2018-02-12T23:35:38.541Z,75.33
2018-02-12T23:38:06.120Z,60.83
2018-02-12T23:40:33.742Z,69.70
2018-02-12T23:43:01.359Z,72.37
2018-02-12T23:45:28.923Z,95.70
2018-02-12T23:47:56.546Z,93.07
2018-02-12T23:50:24.174Z,73.27
2018-02-12T23:52:51.731Z,61.30
2018-02-12T23:55:19.282Z,48.90
2018-02-12T23:57:46.834Z,60.07
